sensor_id;sensor_type;location;lat;lon;timestamp;P1;durP1;ratioP1;P2;durP2;ratioP2
21591;SDS011;10958;50.892;3.992;2022-11-11T00:01:15;17.00;;;9.30;;
21591;SDS011;10958;50.892;3.992;2022-11-11T00:03:42;15.85;;;9.52;;
21591;SDS011;10958;50.892;3.992;2022-11-11T00:06:09;16.02;;;9.23;;
21591;SDS011;10958;50.892;3.992;2022-11-11T00:08:36;11.47;;;8.73;;
21591;SDS011;10958;50.892;3.992;2022-11-11T00:11:06;14.05;;;8.75;;
21591;SDS011;10958;50.892;3.992;2022-11-11T00:13:41;14.50;;;8.48;;
21591;SDS011;10958;50.892;3.992;2022-11-11T00:16:10;12.07;;;8.77;;
21591;SDS011;10958;50.892;3.992;2022-11-11T00:21:20;11.98;;;8.38;;
21591;SDS011;10958;50.892;3.992;2022-11-11T00:23:55;17.63;;;8.95;;
21591;SDS011;10958;50.892;3.992;2022-11-11T00:26:39;17.08;;;8.50;;
21591;SDS011;10958;50.892;3.992;2022-11-11T00:29:04;18.67;;;9.20;;
21591;SDS011;10958;50.892;3.992;2022-11-11T00:31:33;15.70;;;8.05;;
21591;SDS011;10958;50.892;3.992;2022-11-11T00:34:00;14.55;;;8.43;;
21591;SDS011;10958;50.892;3.992;2022-11-11T00:36:26;16.67;;;8.40;;
21591;SDS011;10958;50.892;3.992;2022-11-11T00:38:51;14.15;;;8.48;;
21591;SDS011;10958;50.892;3.992;2022-11-11T00:41:20;13.82;;;8.75;;
21591;SDS011;10958;50.892;3.992;2022-11-11T00:43:47;19.60;;;9.30;;
21591;SDS011;10958;50.892;3.992;2022-11-11T00:46:13;13.05;;;8.32;;
21591;SDS011;10958;50.892;3.992;2022-11-11T00:48:58;19.85;;;9.65;;
21591;SDS011;10958;50.892;3.992;2022-11-11T00:51:43;12.40;;;8.88;;
21591;SDS011;10958;50.892;3.992;2022-11-11T00:54:09;15.25;;;8.55;;
21591;SDS011;10958;50.892;3.992;2022-11-11T00:56:36;14.55;;;8.75;;
21591;SDS011;10958;50.892;3.992;2022-11-11T00:59:03;13.35;;;8.90;;
21591;SDS011;10958;50.892;3.992;2022-11-11T01:01:31;15.35;;;8.70;;
21591;SDS011;10958;50.892;3.992;2022-11-11T01:04:01;16.33;;;9.52;;
21591;SDS011;10958;50.892;3.992;2022-11-11T01:06:27;13.75;;;9.15;;
21591;SDS011;10958;50.892;3.992;2022-11-11T01:08:55;14.48;;;8.98;;
21591;SDS011;10958;50.892;3.992;2022-11-11T01:11:21;15.05;;;8.60;;
21591;SDS011;10958;50.892;3.992;2022-11-11T01:13:48;14.90;;;8.60;;
21591;SDS011;10958;50.892;3.992;2022-11-11T01:16:18;14.10;;;9.52;;
21591;SDS011;10958;50.892;3.992;2022-11-11T01:18:48;15.80;;;9.15;;
21591;SDS011;10958;50.892;3.992;2022-11-11T01:21:16;17.17;;;9.13;;
21591;SDS011;10958;50.892;3.992;2022-11-11T01:23:49;21.67;;;9.18;;
21591;SDS011;10958;50.892;3.992;2022-11-11T01:26:17;16.02;;;9.10;;
21591;SDS011;10958;50.892;3.992;2022-11-11T01:28:52;16.77;;;9.13;;
21591;SDS011;10958;50.892;3.992;2022-11-11T01:31:20;13.77;;;8.85;;
21591;SDS011;10958;50.892;3.992;2022-11-11T01:33:47;21.80;;;10.18;;
21591;SDS011;10958;50.892;3.992;2022-11-11T01:36:21;18.20;;;9.70;;
21591;SDS011;10958;50.892;3.992;2022-11-11T01:38:50;18.85;;;9.20;;
21591;SDS011;10958;50.892;3.992;2022-11-11T01:41:18;19.92;;;10.18;;
21591;SDS011;10958;50.892;3.992;2022-11-11T01:44:37;18.38;;;10.50;;
21591;SDS011;10958;50.892;3.992;2022-11-11T01:47:04;19.05;;;9.85;;
21591;SDS011;10958;50.892;3.992;2022-11-11T01:54:32;14.80;;;9.85;;
21591;SDS011;10958;50.892;3.992;2022-11-11T01:57:07;17.55;;;10.20;;
21591;SDS011;10958;50.892;3.992;2022-11-11T01:59:46;15.15;;;9.60;;
21591;SDS011;10958;50.892;3.992;2022-11-11T02:02:21;16.88;;;9.85;;
21591;SDS011;10958;50.892;3.992;2022-11-11T02:04:50;15.30;;;9.50;;
21591;SDS011;10958;50.892;3.992;2022-11-11T02:07:35;17.13;;;9.80;;
21591;SDS011;10958;50.892;3.992;2022-11-11T02:10:02;14.73;;;9.65;;
21591;SDS011;10958;50.892;3.992;2022-11-11T02:12:31;18.17;;;9.45;;
21591;SDS011;10958;50.892;3.992;2022-11-11T02:15:16;19.88;;;9.75;;
21591;SDS011;10958;50.892;3.992;2022-11-11T02:17:41;19.80;;;9.80;;
21591;SDS011;10958;50.892;3.992;2022-11-11T02:20:07;17.90;;;10.32;;
21591;SDS011;10958;50.892;3.992;2022-11-11T02:25:12;16.98;;;9.50;;
21591;SDS011;10958;50.892;3.992;2022-11-11T02:27:44;17.20;;;10.05;;
21591;SDS011;10958;50.892;3.992;2022-11-11T02:30:14;19.83;;;10.50;;
21591;SDS011;10958;50.892;3.992;2022-11-11T02:32:42;16.50;;;9.48;;
21591;SDS011;10958;50.892;3.992;2022-11-11T02:35:13;14.50;;;9.85;;
21591;SDS011;10958;50.892;3.992;2022-11-11T02:37:42;16.55;;;9.75;;
21591;SDS011;10958;50.892;3.992;2022-11-11T02:40:15;17.13;;;9.68;;
21591;SDS011;10958;50.892;3.992;2022-11-11T02:42:44;20.58;;;9.52;;
21591;SDS011;10958;50.892;3.992;2022-11-11T02:45:10;17.40;;;9.45;;
21591;SDS011;10958;50.892;3.992;2022-11-11T02:47:39;17.50;;;9.20;;
21591;SDS011;10958;50.892;3.992;2022-11-11T02:50:05;14.77;;;9.00;;
21591;SDS011;10958;50.892;3.992;2022-11-11T02:52:31;16.95;;;8.85;;
21591;SDS011;10958;50.892;3.992;2022-11-11T02:54:57;13.32;;;8.52;;
21591;SDS011;10958;50.892;3.992;2022-11-11T02:57:27;14.00;;;8.60;;
21591;SDS011;10958;50.892;3.992;2022-11-11T02:59:54;16.20;;;9.13;;
21591;SDS011;10958;50.892;3.992;2022-11-11T03:02:22;16.13;;;8.45;;
21591;SDS011;10958;50.892;3.992;2022-11-11T03:04:51;14.85;;;8.68;;
21591;SDS011;10958;50.892;3.992;2022-11-11T03:07:20;16.90;;;8.95;;
21591;SDS011;10958;50.892;3.992;2022-11-11T03:09:47;15.32;;;9.10;;
21591;SDS011;10958;50.892;3.992;2022-11-11T03:12:12;14.45;;;8.48;;
21591;SDS011;10958;50.892;3.992;2022-11-11T03:14:38;14.70;;;8.05;;
21591;SDS011;10958;50.892;3.992;2022-11-11T03:17:04;16.63;;;8.45;;
21591;SDS011;10958;50.892;3.992;2022-11-11T03:19:48;18.27;;;9.07;;
21591;SDS011;10958;50.892;3.992;2022-11-11T03:22:15;15.75;;;10.15;;
21591;SDS011;10958;50.892;3.992;2022-11-11T03:24:40;15.95;;;9.65;;
21591;SDS011;10958;50.892;3.992;2022-11-11T03:27:24;17.67;;;10.32;;
21591;SDS011;10958;50.892;3.992;2022-11-11T03:29:50;20.67;;;10.32;;
21591;SDS011;10958;50.892;3.992;2022-11-11T03:32:15;15.00;;;9.57;;
21591;SDS011;10958;50.892;3.992;2022-11-11T03:34:41;14.77;;;10.15;;
21591;SDS011;10958;50.892;3.992;2022-11-11T03:37:08;19.58;;;9.85;;
21591;SDS011;10958;50.892;3.992;2022-11-11T03:39:54;14.50;;;9.95;;
21591;SDS011;10958;50.892;3.992;2022-11-11T03:42:20;14.57;;;9.98;;
21591;SDS011;10958;50.892;3.992;2022-11-11T03:44:48;16.60;;;9.70;;
21591;SDS011;10958;50.892;3.992;2022-11-11T03:47:14;18.27;;;10.32;;
21591;SDS011;10958;50.892;3.992;2022-11-11T03:49:40;17.75;;;9.88;;
21591;SDS011;10958;50.892;3.992;2022-11-11T03:52:07;15.90;;;10.32;;
21591;SDS011;10958;50.892;3.992;2022-11-11T03:54:35;19.25;;;11.05;;
21591;SDS011;10958;50.892;3.992;2022-11-11T03:57:01;16.95;;;10.23;;
21591;SDS011;10958;50.892;3.992;2022-11-11T03:59:45;20.17;;;9.93;;
21591;SDS011;10958;50.892;3.992;2022-11-11T04:02:13;14.68;;;9.88;;
21591;SDS011;10958;50.892;3.992;2022-11-11T04:04:57;15.07;;;10.20;;
21591;SDS011;10958;50.892;3.992;2022-11-11T04:07:41;16.27;;;10.27;;
21591;SDS011;10958;50.892;3.992;2022-11-11T04:10:27;18.70;;;10.88;;
21591;SDS011;10958;50.892;3.992;2022-11-11T04:12:55;15.52;;;9.65;;
21591;SDS011;10958;50.892;3.992;2022-11-11T04:15:41;21.33;;;11.10;;
21591;SDS011;10958;50.892;3.992;2022-11-11T04:18:27;13.80;;;9.68;;
21591;SDS011;10958;50.892;3.992;2022-11-11T04:21:11;14.18;;;9.73;;
21591;SDS011;10958;50.892;3.992;2022-11-11T04:23:55;14.13;;;10.27;;
21591;SDS011;10958;50.892;3.992;2022-11-11T04:26:21;19.30;;;10.82;;
21591;SDS011;10958;50.892;3.992;2022-11-11T04:28:47;16.20;;;10.82;;
21591;SDS011;10958;50.892;3.992;2022-11-11T04:31:31;14.70;;;10.13;;
21591;SDS011;10958;50.892;3.992;2022-11-11T04:33:56;18.17;;;10.90;;
21591;SDS011;10958;50.892;3.992;2022-11-11T04:36:22;18.17;;;10.85;;
21591;SDS011;10958;50.892;3.992;2022-11-11T04:38:48;17.05;;;11.02;;
21591;SDS011;10958;50.892;3.992;2022-11-11T04:41:35;13.15;;;9.57;;
21591;SDS011;10958;50.892;3.992;2022-11-11T04:44:00;16.67;;;10.20;;
21591;SDS011;10958;50.892;3.992;2022-11-11T04:46:44;17.60;;;10.45;;
21591;SDS011;10958;50.892;3.992;2022-11-11T04:49:10;16.55;;;10.35;;
21591;SDS011;10958;50.892;3.992;2022-11-11T04:51:36;13.75;;;9.70;;
21591;SDS011;10958;50.892;3.992;2022-11-11T04:54:19;17.80;;;10.18;;
21591;SDS011;10958;50.892;3.992;2022-11-11T04:56:48;17.20;;;9.50;;
21591;SDS011;10958;50.892;3.992;2022-11-11T04:59:17;15.98;;;10.05;;
21591;SDS011;10958;50.892;3.992;2022-11-11T05:01:44;16.30;;;9.93;;
21591;SDS011;10958;50.892;3.992;2022-11-11T05:04:28;19.70;;;9.00;;
21591;SDS011;10958;50.892;3.992;2022-11-11T05:06:54;15.88;;;9.93;;
21591;SDS011;10958;50.892;3.992;2022-11-11T05:09:39;19.17;;;9.15;;
21591;SDS011;10958;50.892;3.992;2022-11-11T05:12:07;15.77;;;10.10;;
21591;SDS011;10958;50.892;3.992;2022-11-11T05:14:32;12.82;;;9.65;;
21591;SDS011;10958;50.892;3.992;2022-11-11T05:17:16;17.50;;;9.23;;
21591;SDS011;10958;50.892;3.992;2022-11-11T05:20:00;15.48;;;9.77;;
21591;SDS011;10958;50.892;3.992;2022-11-11T05:22:47;19.23;;;9.70;;
21591;SDS011;10958;50.892;3.992;2022-11-11T05:25:13;12.90;;;9.30;;
21591;SDS011;10958;50.892;3.992;2022-11-11T05:27:54;21.30;;;10.10;;
21591;SDS011;10958;50.892;3.992;2022-11-11T05:30:21;14.23;;;9.77;;
21591;SDS011;10958;50.892;3.992;2022-11-11T05:32:48;15.60;;;10.40;;
21591;SDS011;10958;50.892;3.992;2022-11-11T05:35:15;17.63;;;9.98;;
21591;SDS011;10958;50.892;3.992;2022-11-11T05:37:41;16.13;;;10.43;;
21591;SDS011;10958;50.892;3.992;2022-11-11T05:40:07;15.07;;;10.10;;
21591;SDS011;10958;50.892;3.992;2022-11-11T05:42:34;17.10;;;9.68;;
21591;SDS011;10958;50.892;3.992;2022-11-11T05:45:00;20.08;;;11.00;;
21591;SDS011;10958;50.892;3.992;2022-11-11T05:47:26;15.45;;;9.95;;
21591;SDS011;10958;50.892;3.992;2022-11-11T05:49:52;18.15;;;11.23;;
21591;SDS011;10958;50.892;3.992;2022-11-11T05:52:18;14.85;;;9.73;;
21591;SDS011;10958;50.892;3.992;2022-11-11T05:54:44;15.52;;;10.38;;
21591;SDS011;10958;50.892;3.992;2022-11-11T05:57:10;18.42;;;10.20;;
21591;SDS011;10958;50.892;3.992;2022-11-11T05:59:37;17.65;;;9.95;;
21591;SDS011;10958;50.892;3.992;2022-11-11T06:02:05;14.00;;;9.73;;
21591;SDS011;10958;50.892;3.992;2022-11-11T06:04:33;15.07;;;9.38;;
21591;SDS011;10958;50.892;3.992;2022-11-11T06:07:00;20.40;;;9.80;;
21591;SDS011;10958;50.892;3.992;2022-11-11T06:09:25;17.23;;;8.85;;
21591;SDS011;10958;50.892;3.992;2022-11-11T06:11:51;16.33;;;9.43;;
21591;SDS011;10958;50.892;3.992;2022-11-11T06:14:17;13.38;;;9.13;;
21591;SDS011;10958;50.892;3.992;2022-11-11T06:16:42;16.77;;;8.95;;
21591;SDS011;10958;50.892;3.992;2022-11-11T06:19:08;12.25;;;8.77;;
21591;SDS011;10958;50.892;3.992;2022-11-11T06:21:34;18.92;;;9.25;;
21591;SDS011;10958;50.892;3.992;2022-11-11T06:24:19;15.40;;;9.43;;
21591;SDS011;10958;50.892;3.992;2022-11-11T06:26:45;15.93;;;9.05;;
21591;SDS011;10958;50.892;3.992;2022-11-11T06:29:11;16.90;;;8.98;;
21591;SDS011;10958;50.892;3.992;2022-11-11T06:31:36;16.17;;;8.88;;
21591;SDS011;10958;50.892;3.992;2022-11-11T06:34:02;16.23;;;8.95;;
21591;SDS011;10958;50.892;3.992;2022-11-11T06:36:30;13.68;;;9.35;;
21591;SDS011;10958;50.892;3.992;2022-11-11T06:38:58;17.65;;;9.60;;
21591;SDS011;10958;50.892;3.992;2022-11-11T06:41:24;12.07;;;8.20;;
21591;SDS011;10958;50.892;3.992;2022-11-11T06:43:49;13.45;;;8.63;;
21591;SDS011;10958;50.892;3.992;2022-11-11T06:46:17;14.85;;;9.13;;
21591;SDS011;10958;50.892;3.992;2022-11-11T06:48:46;12.32;;;8.15;;
21591;SDS011;10958;50.892;3.992;2022-11-11T06:51:12;12.98;;;8.63;;
21591;SDS011;10958;50.892;3.992;2022-11-11T06:53:38;14.57;;;8.82;;
21591;SDS011;10958;50.892;3.992;2022-11-11T06:56:05;13.88;;;9.35;;
21591;SDS011;10958;50.892;3.992;2022-11-11T06:58:31;17.10;;;9.93;;
21591;SDS011;10958;50.892;3.992;2022-11-11T07:00:58;17.55;;;10.52;;
21591;SDS011;10958;50.892;3.992;2022-11-11T07:03:28;14.18;;;9.10;;
21591;SDS011;10958;50.892;3.992;2022-11-11T07:05:54;13.70;;;8.48;;
21591;SDS011;10958;50.892;3.992;2022-11-11T07:08:20;11.38;;;7.97;;
21591;SDS011;10958;50.892;3.992;2022-11-11T07:10:46;16.30;;;8.55;;
21591;SDS011;10958;50.892;3.992;2022-11-11T07:13:14;13.20;;;8.68;;
21591;SDS011;10958;50.892;3.992;2022-11-11T07:15:40;14.75;;;8.40;;
21591;SDS011;10958;50.892;3.992;2022-11-11T07:18:07;15.63;;;7.47;;
21591;SDS011;10958;50.892;3.992;2022-11-11T07:20:33;12.82;;;7.22;;
21591;SDS011;10958;50.892;3.992;2022-11-11T07:22:59;14.25;;;7.95;;
21591;SDS011;10958;50.892;3.992;2022-11-11T07:25:24;12.30;;;7.22;;
21591;SDS011;10958;50.892;3.992;2022-11-11T07:27:51;12.88;;;7.00;;
21591;SDS011;10958;50.892;3.992;2022-11-11T07:30:17;11.68;;;7.18;;
21591;SDS011;10958;50.892;3.992;2022-11-11T07:32:44;13.05;;;7.15;;
21591;SDS011;10958;50.892;3.992;2022-11-11T07:35:11;12.02;;;7.63;;
21591;SDS011;10958;50.892;3.992;2022-11-11T07:37:38;13.05;;;7.22;;
21591;SDS011;10958;50.892;3.992;2022-11-11T07:40:06;14.13;;;6.97;;
21591;SDS011;10958;50.892;3.992;2022-11-11T07:42:37;15.38;;;6.90;;
21591;SDS011;10958;50.892;3.992;2022-11-11T07:45:04;12.15;;;6.78;;
21591;SDS011;10958;50.892;3.992;2022-11-11T07:47:31;12.43;;;6.68;;
21591;SDS011;10958;50.892;3.992;2022-11-11T07:49:59;11.95;;;6.75;;
21591;SDS011;10958;50.892;3.992;2022-11-11T07:52:25;14.30;;;7.07;;
21591;SDS011;10958;50.892;3.992;2022-11-11T07:54:51;12.27;;;7.80;;
21591;SDS011;10958;50.892;3.992;2022-11-11T07:57:17;13.50;;;6.70;;
21591;SDS011;10958;50.892;3.992;2022-11-11T07:59:44;8.45;;;5.55;;
21591;SDS011;10958;50.892;3.992;2022-11-11T08:02:11;17.60;;;8.40;;
21591;SDS011;10958;50.892;3.992;2022-11-11T08:04:37;14.48;;;8.40;;
21591;SDS011;10958;50.892;3.992;2022-11-11T08:07:03;12.07;;;6.47;;
21591;SDS011;10958;50.892;3.992;2022-11-11T08:09:31;12.10;;;6.40;;
21591;SDS011;10958;50.892;3.992;2022-11-11T08:11:57;9.70;;;5.97;;
21591;SDS011;10958;50.892;3.992;2022-11-11T08:14:41;8.88;;;6.28;;
21591;SDS011;10958;50.892;3.992;2022-11-11T08:17:07;12.88;;;6.40;;
21591;SDS011;10958;50.892;3.992;2022-11-11T08:19:33;13.05;;;6.07;;
21591;SDS011;10958;50.892;3.992;2022-11-11T08:21:59;10.35;;;6.40;;
21591;SDS011;10958;50.892;3.992;2022-11-11T08:24:25;12.63;;;6.28;;
21591;SDS011;10958;50.892;3.992;2022-11-11T08:26:51;15.73;;;7.65;;
21591;SDS011;10958;50.892;3.992;2022-11-11T08:29:17;13.50;;;6.65;;
21591;SDS011;10958;50.892;3.992;2022-11-11T08:31:44;9.48;;;5.75;;
21591;SDS011;10958;50.892;3.992;2022-11-11T08:34:10;15.70;;;7.15;;
21591;SDS011;10958;50.892;3.992;2022-11-11T08:36:36;10.70;;;5.63;;
21591;SDS011;10958;50.892;3.992;2022-11-11T08:39:02;11.25;;;5.53;;
21591;SDS011;10958;50.892;3.992;2022-11-11T08:41:28;8.18;;;5.28;;
21591;SDS011;10958;50.892;3.992;2022-11-11T08:43:54;11.23;;;6.28;;
21591;SDS011;10958;50.892;3.992;2022-11-11T08:46:21;12.05;;;5.63;;
21591;SDS011;10958;50.892;3.992;2022-11-11T08:48:47;12.80;;;5.13;;
21591;SDS011;10958;50.892;3.992;2022-11-11T08:51:13;10.02;;;5.47;;
21591;SDS011;10958;50.892;3.992;2022-11-11T08:53:39;11.13;;;5.78;;
21591;SDS011;10958;50.892;3.992;2022-11-11T08:56:05;8.77;;;5.15;;
21591;SDS011;10958;50.892;3.992;2022-11-11T08:58:31;14.63;;;6.63;;
21591;SDS011;10958;50.892;3.992;2022-11-11T09:00:59;9.00;;;5.10;;
21591;SDS011;10958;50.892;3.992;2022-11-11T09:03:28;7.57;;;4.50;;
21591;SDS011;10958;50.892;3.992;2022-11-11T09:05:54;10.07;;;5.75;;
21591;SDS011;10958;50.892;3.992;2022-11-11T09:08:19;9.45;;;5.57;;
21591;SDS011;10958;50.892;3.992;2022-11-11T09:10:45;11.30;;;5.70;;
21591;SDS011;10958;50.892;3.992;2022-11-11T09:13:11;11.07;;;6.07;;
21591;SDS011;10958;50.892;3.992;2022-11-11T09:15:37;10.32;;;6.28;;
21591;SDS011;10958;50.892;3.992;2022-11-11T09:18:05;11.30;;;6.05;;
21591;SDS011;10958;50.892;3.992;2022-11-11T09:20:32;15.68;;;7.43;;
21591;SDS011;10958;50.892;3.992;2022-11-11T09:22:58;10.80;;;5.97;;
21591;SDS011;10958;50.892;3.992;2022-11-11T09:25:24;9.35;;;5.90;;
21591;SDS011;10958;50.892;3.992;2022-11-11T09:27:54;11.98;;;6.10;;
21591;SDS011;10958;50.892;3.992;2022-11-11T09:30:20;9.43;;;5.40;;
21591;SDS011;10958;50.892;3.992;2022-11-11T09:32:46;7.65;;;5.20;;
21591;SDS011;10958;50.892;3.992;2022-11-11T09:35:12;9.73;;;5.80;;
21591;SDS011;10958;50.892;3.992;2022-11-11T09:37:37;12.27;;;6.93;;
21591;SDS011;10958;50.892;3.992;2022-11-11T09:40:06;8.23;;;5.40;;
21591;SDS011;10958;50.892;3.992;2022-11-11T09:42:52;12.23;;;6.38;;
21591;SDS011;10958;50.892;3.992;2022-11-11T09:49:22;14.40;;;8.70;;
21591;SDS011;10958;50.892;3.992;2022-11-11T10:00:23;36.53;;;19.30;;
21591;SDS011;10958;50.892;3.992;2022-11-11T10:02:52;22.35;;;10.23;;
21591;SDS011;10958;50.892;3.992;2022-11-11T10:07:53;11.73;;;6.97;;
21591;SDS011;10958;50.892;3.992;2022-11-11T10:12:55;15.57;;;8.40;;
21591;SDS011;10958;50.892;3.992;2022-11-11T10:15:29;12.48;;;8.05;;
21591;SDS011;10958;50.892;3.992;2022-11-11T10:20:37;13.57;;;7.90;;
21591;SDS011;10958;50.892;3.992;2022-11-11T10:23:13;16.25;;;7.90;;
21591;SDS011;10958;50.892;3.992;2022-11-11T10:25:45;9.73;;;6.68;;
21591;SDS011;10958;50.892;3.992;2022-11-11T10:28:19;10.68;;;6.95;;
21591;SDS011;10958;50.892;3.992;2022-11-11T10:30:46;14.43;;;7.82;;
21591;SDS011;10958;50.892;3.992;2022-11-11T10:33:27;11.10;;;7.35;;
21591;SDS011;10958;50.892;3.992;2022-11-11T10:36:05;11.85;;;6.97;;
21591;SDS011;10958;50.892;3.992;2022-11-11T10:38:48;10.63;;;7.28;;
21591;SDS011;10958;50.892;3.992;2022-11-11T10:41:22;15.35;;;7.22;;
21591;SDS011;10958;50.892;3.992;2022-11-11T10:44:20;12.05;;;7.88;;
21591;SDS011;10958;50.892;3.992;2022-11-11T10:47:12;13.45;;;7.22;;
21591;SDS011;10958;50.892;3.992;2022-11-11T10:49:55;13.00;;;7.38;;
21591;SDS011;10958;50.892;3.992;2022-11-11T10:52:32;10.77;;;7.13;;
21591;SDS011;10958;50.892;3.992;2022-11-11T10:57:39;9.73;;;6.57;;
21591;SDS011;10958;50.892;3.992;2022-11-11T11:03:54;13.05;;;7.45;;
21591;SDS011;10958;50.892;3.992;2022-11-11T11:06:25;20.67;;;10.57;;
21591;SDS011;10958;50.892;3.992;2022-11-11T11:08:58;11.60;;;7.40;;
21591;SDS011;10958;50.892;3.992;2022-11-11T11:11:39;12.32;;;6.70;;
21591;SDS011;10958;50.892;3.992;2022-11-11T11:14:15;11.90;;;7.97;;
21591;SDS011;10958;50.892;3.992;2022-11-11T11:16:51;12.27;;;7.57;;
21591;SDS011;10958;50.892;3.992;2022-11-11T11:19:26;13.35;;;7.25;;
21591;SDS011;10958;50.892;3.992;2022-11-11T11:21:53;14.50;;;8.27;;
21591;SDS011;10958;50.892;3.992;2022-11-11T11:24:24;11.65;;;7.00;;
21591;SDS011;10958;50.892;3.992;2022-11-11T11:26:59;14.68;;;7.32;;
21591;SDS011;10958;50.892;3.992;2022-11-11T11:29:38;11.15;;;7.75;;
21591;SDS011;10958;50.892;3.992;2022-11-11T11:32:16;11.38;;;7.28;;
21591;SDS011;10958;50.892;3.992;2022-11-11T11:37:16;11.40;;;6.70;;
21591;SDS011;10958;50.892;3.992;2022-11-11T11:39:43;11.35;;;6.60;;
21591;SDS011;10958;50.892;3.992;2022-11-11T11:42:31;13.45;;;7.25;;
21591;SDS011;10958;50.892;3.992;2022-11-11T11:55:54;10.93;;;7.00;;
21591;SDS011;10958;50.892;3.992;2022-11-11T12:01:22;12.40;;;7.15;;
21591;SDS011;10958;50.892;3.992;2022-11-11T12:15:50;13.57;;;7.38;;
21591;SDS011;10958;50.892;3.992;2022-11-11T12:20:41;11.20;;;7.22;;
21591;SDS011;10958;50.892;3.992;2022-11-11T12:23:25;13.70;;;6.97;;
21591;SDS011;10958;50.892;3.992;2022-11-11T12:26:06;8.57;;;5.70;;
21591;SDS011;10958;50.892;3.992;2022-11-11T12:28:56;10.57;;;6.25;;
21591;SDS011;10958;50.892;3.992;2022-11-11T12:37:07;9.77;;;5.35;;
21591;SDS011;10958;50.892;3.992;2022-11-11T12:42:17;9.40;;;5.88;;
21591;SDS011;10958;50.892;3.992;2022-11-11T12:45:12;8.80;;;5.47;;
21591;SDS011;10958;50.892;3.992;2022-11-11T12:51:54;9.93;;;6.57;;
21591;SDS011;10958;50.892;3.992;2022-11-11T12:56:55;7.82;;;5.60;;
21591;SDS011;10958;50.892;3.992;2022-11-11T13:15:26;4.45;;;3.40;;
21591;SDS011;10958;50.892;3.992;2022-11-11T13:17:55;7.10;;;4.13;;
21591;SDS011;10958;50.892;3.992;2022-11-11T13:20:45;6.72;;;3.90;;
21591;SDS011;10958;50.892;3.992;2022-11-11T13:23:18;6.63;;;4.00;;
21591;SDS011;10958;50.892;3.992;2022-11-11T13:25:46;8.98;;;3.75;;
21591;SDS011;10958;50.892;3.992;2022-11-11T13:28:23;5.13;;;3.00;;
21591;SDS011;10958;50.892;3.992;2022-11-11T13:30:57;5.93;;;3.22;;
21591;SDS011;10958;50.892;3.992;2022-11-11T13:33:43;6.07;;;3.15;;
21591;SDS011;10958;50.892;3.992;2022-11-11T13:36:16;6.28;;;2.97;;
21591;SDS011;10958;50.892;3.992;2022-11-11T13:39:04;4.38;;;2.90;;
21591;SDS011;10958;50.892;3.992;2022-11-11T13:41:32;5.97;;;3.63;;
21591;SDS011;10958;50.892;3.992;2022-11-11T13:44:05;6.53;;;3.80;;
21591;SDS011;10958;50.892;3.992;2022-11-11T13:49:50;6.55;;;2.90;;
21591;SDS011;10958;50.892;3.992;2022-11-11T13:52:00;4.63;;;3.10;;
21591;SDS011;10958;50.892;3.992;2022-11-11T13:54:46;6.40;;;4.00;;
21591;SDS011;10958;50.892;3.992;2022-11-11T13:57:17;7.97;;;4.40;;
21591;SDS011;10958;50.892;3.992;2022-11-11T13:59:53;6.50;;;3.65;;
21591;SDS011;10958;50.892;3.992;2022-11-11T14:02:27;6.68;;;4.00;;
21591;SDS011;10958;50.892;3.992;2022-11-11T14:18:46;11.07;;;5.03;;
21591;SDS011;10958;50.892;3.992;2022-11-11T14:20:49;11.70;;;5.38;;
21591;SDS011;10958;50.892;3.992;2022-11-11T14:41:56;7.35;;;4.57;;
21591;SDS011;10958;50.892;3.992;2022-11-11T14:52:25;10.97;;;6.90;;
21591;SDS011;10958;50.892;3.992;2022-11-11T14:57:45;9.63;;;5.45;;
21591;SDS011;10958;50.892;3.992;2022-11-11T15:03:02;10.70;;;6.13;;
21591;SDS011;10958;50.892;3.992;2022-11-11T15:08:16;8.05;;;5.85;;
21591;SDS011;10958;50.892;3.992;2022-11-11T15:11:21;7.10;;;4.25;;
21591;SDS011;10958;50.892;3.992;2022-11-11T15:28:07;10.93;;;5.68;;
21591;SDS011;10958;50.892;3.992;2022-11-11T15:33:19;10.30;;;6.63;;
21591;SDS011;10958;50.892;3.992;2022-11-11T15:36:15;9.15;;;6.40;;
21591;SDS011;10958;50.892;3.992;2022-11-11T15:38:50;14.40;;;7.75;;
21591;SDS011;10958;50.892;3.992;2022-11-11T15:41:21;13.15;;;7.93;;
21591;SDS011;10958;50.892;3.992;2022-11-11T15:43:53;12.15;;;6.80;;
21591;SDS011;10958;50.892;3.992;2022-11-11T15:46:26;9.70;;;6.38;;
21591;SDS011;10958;50.892;3.992;2022-11-11T15:48:53;11.75;;;6.18;;
21591;SDS011;10958;50.892;3.992;2022-11-11T15:51:30;11.57;;;6.45;;
21591;SDS011;10958;50.892;3.992;2022-11-11T15:54:18;9.18;;;5.18;;
21591;SDS011;10958;50.892;3.992;2022-11-11T15:56:46;9.65;;;5.40;;
21591;SDS011;10958;50.892;3.992;2022-11-11T16:01:43;8.10;;;5.18;;
21591;SDS011;10958;50.892;3.992;2022-11-11T16:04:09;13.63;;;5.57;;
21591;SDS011;10958;50.892;3.992;2022-11-11T16:06:42;9.68;;;5.45;;
21591;SDS011;10958;50.892;3.992;2022-11-11T16:09:13;8.00;;;5.80;;
21591;SDS011;10958;50.892;3.992;2022-11-11T16:11:48;8.57;;;5.00;;
21591;SDS011;10958;50.892;3.992;2022-11-11T16:16:57;10.10;;;5.90;;
21591;SDS011;10958;50.892;3.992;2022-11-11T16:19:31;14.73;;;6.90;;
21591;SDS011;10958;50.892;3.992;2022-11-11T16:22:07;14.68;;;8.32;;
21591;SDS011;10958;50.892;3.992;2022-11-11T16:25:04;12.65;;;7.90;;
21591;SDS011;10958;50.892;3.992;2022-11-11T16:27:37;12.05;;;7.60;;
21591;SDS011;10958;50.892;3.992;2022-11-11T16:32:56;19.15;;;8.80;;
21591;SDS011;10958;50.892;3.992;2022-11-11T16:37:59;14.85;;;8.15;;
21591;SDS011;10958;50.892;3.992;2022-11-11T16:43:13;15.00;;;7.40;;
21591;SDS011;10958;50.892;3.992;2022-11-11T16:49:03;13.73;;;7.38;;
21591;SDS011;10958;50.892;3.992;2022-11-11T16:51:14;14.60;;;7.28;;
21591;SDS011;10958;50.892;3.992;2022-11-11T16:54:10;13.90;;;9.02;;
21591;SDS011;10958;50.892;3.992;2022-11-11T16:56:49;15.32;;;9.23;;
21591;SDS011;10958;50.892;3.992;2022-11-11T16:59:23;18.77;;;13.27;;
21591;SDS011;10958;50.892;3.992;2022-11-11T17:01:59;20.10;;;12.05;;
21591;SDS011;10958;50.892;3.992;2022-11-11T17:04:25;25.02;;;13.27;;
21591;SDS011;10958;50.892;3.992;2022-11-11T17:07:10;27.42;;;17.25;;
21591;SDS011;10958;50.892;3.992;2022-11-11T17:12:38;34.35;;;18.85;;
21591;SDS011;10958;50.892;3.992;2022-11-11T17:15:04;30.77;;;16.45;;
21591;SDS011;10958;50.892;3.992;2022-11-11T17:17:35;26.02;;;13.93;;
21591;SDS011;10958;50.892;3.992;2022-11-11T17:20:07;23.92;;;13.15;;
21591;SDS011;10958;50.892;3.992;2022-11-11T17:22:47;24.90;;;13.00;;
21591;SDS011;10958;50.892;3.992;2022-11-11T17:25:17;19.55;;;12.25;;
21591;SDS011;10958;50.892;3.992;2022-11-11T17:27:49;22.58;;;13.88;;
21591;SDS011;10958;50.892;3.992;2022-11-11T17:30:15;18.30;;;12.82;;
21591;SDS011;10958;50.892;3.992;2022-11-11T17:32:41;23.23;;;13.18;;
21591;SDS011;10958;50.892;3.992;2022-11-11T17:35:07;17.95;;;11.88;;
21591;SDS011;10958;50.892;3.992;2022-11-11T17:37:36;18.17;;;11.30;;
21591;SDS011;10958;50.892;3.992;2022-11-11T17:40:06;16.05;;;10.55;;
21591;SDS011;10958;50.892;3.992;2022-11-11T17:42:33;17.52;;;11.75;;
21591;SDS011;10958;50.892;3.992;2022-11-11T17:44:59;18.05;;;10.93;;
21591;SDS011;10958;50.892;3.992;2022-11-11T17:47:25;17.15;;;11.10;;
21591;SDS011;10958;50.892;3.992;2022-11-11T17:49:51;18.75;;;11.15;;
21591;SDS011;10958;50.892;3.992;2022-11-11T17:52:17;15.85;;;11.88;;
21591;SDS011;10958;50.892;3.992;2022-11-11T17:54:44;19.48;;;12.35;;
21591;SDS011;10958;50.892;3.992;2022-11-11T17:57:09;15.23;;;10.77;;
21591;SDS011;10958;50.892;3.992;2022-11-11T17:59:35;14.65;;;11.27;;
21591;SDS011;10958;50.892;3.992;2022-11-11T18:02:01;12.95;;;8.60;;